Time;durP1;ratioP1;P1;durP2;ratioP2;P2;SDS_P1;SDS_P2;PMS_P1;PMS_P2;Temp;Humidity;BMP_temperature;BMP_pressure;BME280_temperature;BME280_humidity;BME280_pressure;Samples;Min_cycle;Max_cycle;Signal;HPM_P1;HPM_P2
2023/04/15 00:02:17;;;;;;;6.57;5.78;;;7.40;99.90;;;;;;5074372;28;20083;-83
2023/04/15 00:04:47;;;;;;;6.10;5.40;;;7.50;99.90;;;;;;5074493;28;20060;-84
2023/04/15 00:07:13;;;;;;;9.95;6.75;;;7.40;99.90;;;;;;5074983;28;20040;-83
2023/04/15 00:09:40;;;;;;;11.38;6.72;;;7.40;99.90;;;;;;5073394;28;20524;-83
2023/04/15 00:12:07;;;;;;;8.82;5.97;;;7.40;99.90;;;;;;5074452;28;20182;-83
2023/04/15 00:14:34;;;;;;;11.05;5.70;;;7.30;99.90;;;;;;5074327;28;20473;-82
2023/04/15 00:17:00;;;;;;;11.30;5.78;;;7.30;99.90;;;;;;5074368;28;20087;-83
2023/04/15 00:19:26;;;;;;;9.00;5.32;;;7.30;99.90;;;;;;5072880;28;20094;-83
2023/04/15 00:21:51;;;;;;;8.13;6.38;;;7.20;99.90;;;;;;5074569;28;20052;-83
2023/04/15 00:24:17;;;;;;;8.40;7.30;;;7.20;99.90;;;;;;5089775;28;20481;-85
2023/04/15 00:26:43;;;;;;;8.95;6.47;;;7.20;99.90;;;;;;5074410;28;20040;-80
2023/04/15 00:29:09;;;;;;;9.65;6.50;;;7.10;99.90;;;;;;5074314;28;20048;-83
2023/04/15 00:31:34;;;;;;;7.70;5.78;;;7.20;99.90;;;;;;5074037;28;20049;-82
2023/04/15 00:34:01;;;;;;;8.13;6.75;;;7.20;99.90;;;;;;5073447;28;20097;-84
2023/04/15 00:36:27;;;;;;;7.43;6.25;;;7.20;99.90;;;;;;5073864;28;20045;-83
2023/04/15 00:38:52;;;;;;;9.95;6.03;;;7.10;99.90;;;;;;5073874;28;20048;-84
2023/04/15 00:41:19;;;;;;;7.28;5.50;;;7.10;99.90;;;;;;5073544;28;20513;-84
2023/04/15 00:43:45;;;;;;;8.27;6.35;;;7.10;99.90;;;;;;5073692;28;20041;-83
2023/04/15 00:46:14;;;;;;;9.82;6.28;;;7.10;99.90;;;;;;5073644;28;20037;-83
2023/04/15 00:48:41;;;;;;;9.23;6.93;;;7.10;99.90;;;;;;5073309;28;20401;-82
2023/04/15 00:51:07;;;;;;;9.05;6.80;;;7.00;99.90;;;;;;5073400;28;20052;-81
2023/04/15 00:53:33;;;;;;;13.70;7.70;;;7.00;99.90;;;;;;5073566;28;20486;-84
2023/04/15 00:55:58;;;;;;;7.30;6.50;;;7.00;99.90;;;;;;5073597;28;20041;-85
2023/04/15 00:58:26;;;;;;;7.85;6.65;;;7.00;99.90;;;;;;5072604;28;20451;-84
2023/04/15 01:00:54;;;;;;;8.80;7.25;;;7.00;99.90;;;;;;5073372;28;20094;-82
2023/04/15 01:03:20;;;;;;;8.88;6.80;;;7.00;99.90;;;;;;5073230;28;20469;-81
2023/04/15 01:05:46;;;;;;;9.02;6.43;;;6.90;99.90;;;;;;5072422;28;20048;-81
2023/04/15 01:08:11;;;;;;;8.82;6.53;;;6.90;99.90;;;;;;5073297;28;20478;-83
2023/04/15 01:10:38;;;;;;;11.07;7.20;;;6.80;99.90;;;;;;5072712;28;20045;-81
2023/04/15 01:13:04;;;;;;;10.05;6.43;;;6.80;99.90;;;;;;5073125;28;20055;-82
2023/04/15 01:15:30;;;;;;;10.38;7.53;;;6.80;99.90;;;;;;5072123;28;20049;-82
2023/04/15 01:17:58;;;;;;;10.50;7.35;;;6.80;99.90;;;;;;5073681;28;20041;-82
2023/04/15 01:20:24;;;;;;;10.98;7.10;;;6.80;99.90;;;;;;5073326;28;20055;-84
2023/04/15 01:22:50;;;;;;;9.68;7.03;;;6.80;99.90;;;;;;5073060;28;20053;-84
2023/04/15 01:25:26;;;;;;;7.78;6.78;;;6.80;99.90;;;;;;5072972;28;20049;-83
2023/04/15 01:27:51;;;;;;;7.05;5.82;;;6.70;99.90;;;;;;5071835;28;20489;-82
2023/04/15 01:30:17;;;;;;;8.75;6.28;;;6.70;99.90;;;;;;5073224;28;20087;-83
2023/04/15 01:32:43;;;;;;;12.65;7.25;;;6.70;99.90;;;;;;5072244;28;20041;-85
2023/04/15 01:35:09;;;;;;;10.73;7.50;;;6.70;99.90;;;;;;5072344;28;20040;-83
2023/04/15 01:37:35;;;;;;;8.95;6.85;;;6.60;99.90;;;;;;5071815;28;20557;-81
2023/04/15 01:40:02;;;;;;;8.65;6.57;;;6.60;99.90;;;;;;5072762;28;20051;-80
2023/04/15 01:42:27;;;;;;;10.35;7.70;;;6.60;99.90;;;;;;5073432;28;20119;-82
2023/04/15 01:44:53;;;;;;;11.23;7.20;;;6.50;99.90;;;;;;5088770;28;20508;-83
2023/04/15 01:47:19;;;;;;;10.77;7.50;;;6.50;99.90;;;;;;5088322;28;20043;-84
2023/04/15 01:49:45;;;;;;;9.00;6.97;;;6.50;99.90;;;;;;5072601;28;20136;-81
2023/04/15 01:52:11;;;;;;;6.78;6.07;;;6.50;99.90;;;;;;5088055;28;20067;-83
2023/04/15 01:54:36;;;;;;;10.63;7.70;;;6.50;99.90;;;;;;5072891;28;20056;-82
2023/04/15 01:57:02;;;;;;;8.18;7.13;;;6.40;99.90;;;;;;5073904;28;20040;-84
2023/04/15 01:59:30;;;;;;;9.43;6.78;;;6.40;99.90;;;;;;5076279;28;20044;-85
2023/04/15 02:01:56;;;;;;;10.25;8.07;;;6.40;99.90;;;;;;5081195;28;20108;-84
2023/04/15 02:04:22;;;;;;;10.57;7.13;;;6.40;99.90;;;;;;5082131;28;20123;-80
2023/04/15 02:06:48;;;;;;;10.23;8.77;;;6.40;99.90;;;;;;5083446;28;20048;-84
2023/04/15 02:09:13;;;;;;;12.07;8.80;;;6.30;99.90;;;;;;5079093;28;20080;-83
2023/04/15 02:11:39;;;;;;;11.18;7.90;;;6.30;99.90;;;;;;5089281;28;20101;-85
2023/04/15 02:14:05;;;;;;;10.68;8.23;;;5.60;99.90;;;;;;5073160;28;20097;-81
2023/04/15 02:16:32;;;;;;;12.07;8.90;;;6.30;99.90;;;;;;5072853;28;20055;-84
2023/04/15 02:18:59;;;;;;;13.07;8.65;;;6.30;99.90;;;;;;5072558;28;20057;-85
2023/04/15 02:21:28;;;;;;;9.55;8.48;;;6.20;99.90;;;;;;5054942;28;20059;-83
2023/04/15 02:23:53;;;;;;;11.75;9.68;;;6.20;99.90;;;;;;5072631;28;20052;-85
2023/04/15 02:26:19;;;;;;;15.77;8.05;;;6.20;99.90;;;;;;5072990;28;20510;-86
2023/04/15 02:28:46;;;;;;;10.73;8.65;;;6.20;99.90;;;;;;5072519;28;20048;-84
2023/04/15 02:31:11;;;;;;;10.27;9.18;;;6.10;99.90;;;;;;5071273;28;20056;-84
2023/04/15 02:33:37;;;;;;;12.35;8.68;;;6.10;99.90;;;;;;5071875;28;20049;-83
2023/04/15 02:36:04;;;;;;;12.70;9.13;;;6.10;99.90;;;;;;5071522;28;20048;-84
2023/04/15 02:38:30;;;;;;;11.55;10.32;;;6.10;99.90;;;;;;5072407;28;20459;-84
2023/04/15 02:40:56;;;;;;;10.90;8.80;;;6.10;99.90;;;;;;5072283;28;20080;-83
2023/04/15 02:43:22;;;;;;;12.90;9.07;;;6.00;99.90;;;;;;5072123;28;20071;-83
2023/04/15 02:45:48;;;;;;;13.75;9.60;;;6.00;99.90;;;;;;5071124;28;20056;-82
2023/04/15 02:48:16;;;;;;;13.02;9.10;;;6.00;99.90;;;;;;5072370;28;20044;-83
2023/04/15 02:50:42;;;;;;;14.15;9.35;;;6.00;99.90;;;;;;5071780;28;20472;-85
2023/04/15 02:53:08;;;;;;;12.57;9.18;;;5.90;99.90;;;;;;5072030;28;20052;-85
2023/04/15 02:55:33;;;;;;;11.07;8.88;;;5.90;99.90;;;;;;5071924;28;20040;-81
2023/04/15 02:57:59;;;;;;;12.93;9.48;;;6.00;99.90;;;;;;5071705;28;20037;-84
2023/04/15 03:00:26;;;;;;;14.00;10.70;;;5.90;99.90;;;;;;5070717;28;20371;-85
2023/04/15 03:02:58;;;;;;;15.50;10.55;;;5.90;99.90;;;;;;5087516;28;20041;-82
2023/04/15 03:05:24;;;;;;;13.20;10.07;;;5.90;99.90;;;;;;5073962;28;20052;-83
2023/04/15 03:07:51;;;;;;;11.63;10.43;;;5.90;99.90;;;;;;5076002;28;20041;-85
2023/04/15 03:10:16;;;;;;;13.15;11.15;;;5.90;99.90;;;;;;5075546;28;20123;-84
2023/04/15 03:12:42;;;;;;;19.10;12.82;;;5.90;99.90;;;;;;5075514;28;20170;-87
2023/04/15 03:15:09;;;;;;;14.40;12.57;;;5.80;99.90;;;;;;5075694;28;20052;-87
2023/04/15 03:17:34;;;;;;;12.65;11.23;;;5.90;99.90;;;;;;5074446;28;20052;-85
2023/04/15 03:20:05;;;;;;;14.32;11.88;;;6.30;99.90;;;;;;5074662;28;20388;-83
2023/04/15 03:22:31;;;;;;;15.57;13.38;;;5.90;99.90;;;;;;5074467;28;20515;-85
2023/04/15 03:24:57;;;;;;;13.45;12.07;;;5.90;99.90;;;;;;5075349;28;20048;-86
2023/04/15 03:27:23;;;;;;;16.15;12.77;;;5.90;99.90;;;;;;5091370;28;20049;-81
2023/04/15 03:29:49;;;;;;;18.05;12.70;;;5.30;99.90;;;;;;5075131;28;20048;-84
2023/04/15 03:32:15;;;;;;;16.70;13.63;;;5.80;99.90;;;;;;5091791;28;20059;-85
2023/04/15 03:34:41;;;;;;;14.23;12.73;;;5.90;99.90;;;;;;5075297;28;20487;-85
2023/04/15 03:37:07;;;;;;;18.38;13.38;;;5.80;99.90;;;;;;5075385;28;20040;-82
2023/04/15 03:39:33;;;;;;;17.08;12.68;;;5.80;99.90;;;;;;5074113;28;20087;-85
2023/04/15 03:42:00;;;;;;;18.00;14.00;;;5.70;99.90;;;;;;5075404;28;20067;-85
2023/04/15 03:44:26;;;;;;;17.20;13.98;;;5.80;99.90;;;;;;5074170;28;20057;-84
2023/04/15 03:46:53;;;;;;;18.27;13.95;;;5.70;99.90;;;;;;5074903;28;20032;-86
2023/04/15 03:49:19;;;;;;;18.88;14.40;;;5.80;99.90;;;;;;5074542;28;20527;-85
2023/04/15 03:51:45;;;;;;;18.08;13.98;;;5.80;99.90;;;;;;5073479;28;20060;-84
2023/04/15 03:54:14;;;;;;;19.08;14.10;;;5.80;99.90;;;;;;5073901;28;20060;-85
2023/04/15 03:56:40;;;;;;;13.90;11.73;;;5.80;99.90;;;;;;5075126;28;20044;-84
2023/04/15 03:59:05;;;;;;;17.25;13.15;;;5.70;99.90;;;;;;5057596;28;20048;-86
2023/04/15 04:01:31;;;;;;;19.98;14.38;;;5.70;99.90;;;;;;5074685;28;20036;-84
2023/04/15 04:03:57;;;;;;;19.92;14.65;;;5.70;99.90;;;;;;5075029;28;20442;-85
2023/04/15 04:06:23;;;;;;;18.73;15.35;;;5.70;99.90;;;;;;5074607;28;20045;-86
2023/04/15 04:08:48;;;;;;;23.73;16.20;;;5.70;99.90;;;;;;5074149;28;20462;-84
2023/04/15 04:11:14;;;;;;;15.23;12.63;;;5.80;99.90;;;;;;5075088;28;20465;-86
2023/04/15 04:13:40;;;;;;;19.27;14.57;;;5.80;99.90;;;;;;5074810;28;20044;-83
2023/04/15 04:16:06;;;;;;;22.50;15.90;;;5.80;99.90;;;;;;5072422;28;20052;-86
2023/04/15 04:18:32;;;;;;;21.08;13.88;;;5.80;99.90;;;;;;5074757;28;20097;-81
2023/04/15 04:20:58;;;;;;;19.77;16.20;;;5.80;99.90;;;;;;5089805;28;20048;-86
2023/04/15 04:23:24;;;;;;;19.35;15.65;;;5.80;99.90;;;;;;5074593;28;20072;-85
2023/04/15 04:25:51;;;;;;;20.15;13.20;;;5.80;99.90;;;;;;5074745;28;20057;-86
2023/04/15 04:28:17;;;;;;;18.40;13.80;;;5.80;99.90;;;;;;5073566;28;20121;-84
2023/04/15 04:30:43;;;;;;;22.52;15.32;;;5.90;99.90;;;;;;5072900;28;20123;-84
2023/04/15 04:33:08;;;;;;;23.33;15.32;;;5.80;99.90;;;;;;5073702;28;20460;-86
2023/04/15 04:35:36;;;;;;;18.80;15.05;;;5.90;99.90;;;;;;5073815;28;20093;-87
2023/04/15 04:38:02;;;;;;;21.63;15.70;;;5.90;99.90;;;;;;5072877;28;20095;-81
2023/04/15 04:40:28;;;;;;;20.35;15.93;;;5.90;99.90;;;;;;5073912;28;20048;-88
2023/04/15 04:42:54;;;;;;;18.08;14.07;;;6.00;99.90;;;;;;5073610;28;20485;-87
2023/04/15 04:45:20;;;;;;;21.70;16.15;;;5.90;99.90;;;;;;5073005;28;20124;-86
2023/04/15 04:47:46;;;;;;;19.33;14.60;;;5.90;99.90;;;;;;5073602;28;20051;-83
2023/04/15 04:50:12;;;;;;;20.00;16.58;;;5.90;99.90;;;;;;5072429;28;20123;-84
2023/04/15 04:52:38;;;;;;;22.52;16.77;;;5.90;99.90;;;;;;5073382;28;20528;-86
2023/04/15 04:55:05;;;;;;;21.75;15.57;;;5.90;99.90;;;;;;5072752;28;20085;-83
2023/04/15 04:57:31;;;;;;;18.23;13.80;;;5.90;99.90;;;;;;5073504;28;20055;-85
2023/04/15 04:59:56;;;;;;;20.13;16.42;;;5.80;99.90;;;;;;5089559;28;20049;-84
2023/04/15 05:02:22;;;;;;;21.50;17.08;;;5.60;99.90;;;;;;5073394;28;20044;-85
2023/04/15 05:04:50;;;;;;;16.35;14.20;;;5.90;99.90;;;;;;5075362;28;20052;-82
2023/04/15 05:07:16;;;;;;;20.80;15.00;;;5.60;99.90;;;;;;5076864;28;20048;-83
2023/04/15 05:09:42;;;;;;;21.02;16.33;;;5.60;99.90;;;;;;5073788;28;20417;-85
2023/04/15 05:12:12;;;;;;;20.45;14.95;;;5.60;99.90;;;;;;5089351;28;20048;-79
2023/04/15 05:14:38;;;;;;;19.80;14.85;;;5.70;99.90;;;;;;5088734;28;20133;-85
2023/04/15 05:17:04;;;;;;;17.45;14.68;;;5.70;99.90;;;;;;5074790;28;20048;-84
2023/04/15 05:19:30;;;;;;;20.75;15.52;;;5.70;99.90;;;;;;5073958;28;20457;-87
2023/04/15 05:21:55;;;;;;;18.20;14.73;;;5.80;99.90;;;;;;5089991;28;20118;-85
2023/04/15 05:24:22;;;;;;;16.15;13.00;;;5.70;99.90;;;;;;5090033;28;20401;-84
2023/04/15 05:26:48;;;;;;;20.92;15.93;;;5.80;99.90;;;;;;5089077;28;20048;-86
2023/04/15 05:29:13;;;;;;;20.13;15.05;;;5.80;99.90;;;;;;5089089;28;20132;-82
2023/04/15 05:31:40;;;;;;;20.52;15.45;;;5.80;99.90;;;;;;5073360;28;20059;-84
2023/04/15 05:34:06;;;;;;;17.23;14.43;;;5.80;99.90;;;;;;5073112;28;20081;-85
2023/04/15 05:36:31;;;;;;;18.00;14.88;;;5.90;99.90;;;;;;5073096;28;20040;-83
2023/04/15 05:38:57;;;;;;;17.33;14.68;;;6.00;99.90;;;;;;5072198;28;20045;-82
2023/04/15 05:41:23;;;;;;;21.98;15.68;;;6.10;99.90;;;;;;5072859;28;20048;-84
2023/04/15 05:43:48;;;;;;;24.13;16.20;;;6.20;99.90;;;;;;5073224;28;20469;-83
2023/04/15 05:46:14;;;;;;;20.42;15.23;;;6.20;99.90;;;;;;5072721;28;20063;-84
2023/04/15 05:48:40;;;;;;;15.93;14.23;;;6.30;99.90;;;;;;5071965;28;20056;-84
2023/04/15 05:51:06;;;;;;;20.10;15.63;;;6.40;99.90;;;;;;5072768;28;20056;-85
2023/04/15 05:53:32;;;;;;;18.30;14.38;;;6.50;99.90;;;;;;5072982;28;20110;-83
2023/04/15 05:55:57;;;;;;;17.80;13.93;;;6.60;99.90;;;;;;5072512;28;20131;-81
2023/04/15 05:58:23;;;;;;;19.58;13.45;;;6.60;99.90;;;;;;5072852;28;20144;-81
2023/04/15 06:00:49;;;;;;;19.08;15.10;;;6.80;99.90;;;;;;5088092;28;20041;-82
2023/04/15 06:03:15;;;;;;;19.00;14.35;;;6.80;99.90;;;;;;5072950;28;20045;-73
2023/04/15 06:05:41;;;;;;;18.85;14.52;;;6.90;99.90;;;;;;5072356;28;20127;-81
2023/04/15 06:08:07;;;;;;;16.88;14.38;;;7.00;99.90;;;;;;5088509;28;20106;-80
2023/04/15 06:10:35;;;;;;;18.15;14.18;;;7.00;99.90;;;;;;5072823;28;20052;-77
2023/04/15 06:13:02;;;;;;;16.52;13.43;;;7.10;99.90;;;;;;5072940;28;20076;-80
2023/04/15 06:15:28;;;;;;;19.05;14.07;;;7.20;99.90;;;;;;5071343;28;20127;-82
2023/04/15 06:17:54;;;;;;;15.77;13.88;;;7.20;99.90;;;;;;5072403;28;20141;-81
2023/04/15 06:20:20;;;;;;;17.50;14.00;;;7.40;99.90;;;;;;5071248;28;20474;-82
2023/04/15 06:22:45;;;;;;;17.27;13.60;;;7.50;99.90;;;;;;5072368;28;20527;-81
2023/04/15 06:25:11;;;;;;;20.58;13.45;;;7.60;99.90;;;;;;5072869;28;20480;-81
2023/04/15 06:27:37;;;;;;;16.98;13.48;;;7.60;99.90;;;;;;5087624;28;20041;-81
2023/04/15 06:30:04;;;;;;;18.42;13.63;;;7.80;99.90;;;;;;5071386;28;20048;-81
2023/04/15 06:32:30;;;;;;;19.65;13.98;;;7.80;99.90;;;;;;5071176;28;20412;-82
2023/04/15 06:34:56;;;;;;;16.35;11.80;;;7.90;99.90;;;;;;5072124;28;20048;-81
2023/04/15 06:37:22;;;;;;;15.20;11.73;;;8.00;99.90;;;;;;5072065;28;20044;-81
2023/04/15 06:39:47;;;;;;;18.17;13.40;;;8.10;99.90;;;;;;5073432;28;20141;-84
2023/04/15 06:42:13;;;;;;;15.38;11.60;;;8.10;99.90;;;;;;5075896;28;20049;-82
2023/04/15 06:44:39;;;;;;;18.17;11.80;;;8.20;99.90;;;;;;5091926;28;20055;-82
2023/04/15 06:47:05;;;;;;;18.73;11.00;;;8.20;99.90;;;;;;5075805;28;20054;-81
2023/04/15 06:49:30;;;;;;;13.82;10.38;;;8.30;99.90;;;;;;5074388;28;20044;-82
2023/04/15 06:51:56;;;;;;;18.25;10.88;;;8.30;99.90;;;;;;5075335;28;20067;-80
2023/04/15 06:54:22;;;;;;;14.55;10.63;;;8.40;99.90;;;;;;5075789;28;20063;-82
2023/04/15 06:56:48;;;;;;;14.15;10.00;;;8.40;99.90;;;;;;5075744;28;20109;-82
2023/04/15 06:59:13;;;;;;;15.02;10.15;;;8.40;99.90;;;;;;5075681;28;20117;-80
2023/04/15 07:01:42;;;;;;;11.00;9.52;;;8.50;99.90;;;;;;5075618;28;20080;-81
2023/04/15 07:04:08;;;;;;;12.65;10.38;;;8.40;99.90;;;;;;5076115;28;20036;-81
2023/04/15 07:06:34;;;;;;;13.20;9.60;;;8.50;99.90;;;;;;5091411;28;20515;-81
2023/04/15 07:09:00;;;;;;;13.77;10.73;;;8.60;99.90;;;;;;5075490;28;20048;-81
2023/04/15 07:11:26;;;;;;;13.70;10.45;;;8.70;99.90;;;;;;5075627;28;20045;-81
2023/04/15 07:13:52;;;;;;;12.07;10.02;;;8.70;99.90;;;;;;5091705;28;20544;-80
2023/04/15 07:16:18;;;;;;;15.45;10.60;;;8.80;99.90;;;;;;5076071;28;20064;-82
2023/04/15 07:18:43;;;;;;;14.20;9.18;;;8.10;99.90;;;;;;5075394;28;20449;-83
2023/04/15 07:21:09;;;;;;;14.23;9.82;;;8.80;99.90;;;;;;5075271;28;20049;-84
2023/04/15 07:23:35;;;;;;;14.68;10.63;;;8.80;99.90;;;;;;5075212;28;20477;-82
2023/04/15 07:26:01;;;;;;;14.57;11.07;;;8.90;99.90;;;;;;5075530;28;20049;-80
2023/04/15 07:28:27;;;;;;;13.45;9.60;;;8.90;99.90;;;;;;5074348;28;20055;-81
2023/04/15 07:30:52;;;;;;;12.07;8.48;;;9.00;99.90;;;;;;5074685;28;20362;-80
2023/04/15 07:33:18;;;;;;;12.55;10.40;;;9.00;99.90;;;;;;5073929;28;20173;-81
2023/04/15 07:35:44;;;;;;;12.02;8.65;;;9.00;99.90;;;;;;5075626;28;20048;-81
2023/04/15 07:38:11;;;;;;;12.95;9.25;;;9.00;99.90;;;;;;5075336;28;20460;-82
2023/04/15 07:40:38;;;;;;;11.05;8.73;;;9.10;99.90;;;;;;5075428;28;20049;-81
2023/04/15 07:43:04;;;;;;;16.27;8.73;;;9.00;99.90;;;;;;5107254;28;20044;-82
2023/04/15 07:45:30;;;;;;;10.65;8.48;;;9.00;99.90;;;;;;5074714;28;20115;-82
2023/04/15 07:47:56;;;;;;;11.70;8.00;;;9.00;99.90;;;;;;5074733;28;20044;-81
2023/04/15 07:50:23;;;;;;;10.70;8.07;;;9.00;99.90;;;;;;5074284;28;20048;-84
2023/04/15 07:52:50;;;;;;;13.23;8.88;;;9.00;99.90;;;;;;5074202;28;20110;-83
2023/04/15 07:55:18;;;;;;;9.32;7.15;;;9.00;99.90;;;;;;5075006;28;20052;-80
2023/04/15 07:57:46;;;;;;;9.80;6.95;;;9.00;99.90;;;;;;5073721;28;20052;-83
2023/04/15 08:00:12;;;;;;;11.25;7.18;;;9.10;99.90;;;;;;5074471;28;20052;-82
2023/04/15 08:02:38;;;;;;;7.88;6.70;;;9.10;99.90;;;;;;5056809;28;20110;-83
2023/04/15 08:05:04;;;;;;;10.00;6.70;;;9.10;99.90;;;;;;5074014;28;20473;-80
2023/04/15 08:07:30;;;;;;;9.60;6.05;;;9.20;99.90;;;;;;5073073;28;20113;-76
2023/04/15 08:09:56;;;;;;;9.50;6.38;;;9.30;99.90;;;;;;5074531;28;20048;-80
2023/04/15 08:12:22;;;;;;;7.63;5.95;;;9.30;99.90;;;;;;5074244;28;20461;-80
2023/04/15 08:14:50;;;;;;;9.38;6.70;;;9.30;99.90;;;;;;5074665;28;20055;-81
2023/04/15 08:17:16;;;;;;;7.07;5.85;;;9.30;99.90;;;;;;5074491;28;20086;-79
2023/04/15 08:19:42;;;;;;;8.57;6.13;;;9.40;99.90;;;;;;5074805;28;20048;-83
2023/04/15 08:22:07;;;;;;;7.28;5.82;;;9.40;99.90;;;;;;5074391;28;20474;-80
2023/04/15 08:24:33;;;;;;;6.80;5.72;;;9.30;99.90;;;;;;5076119;28;20515;-85
2023/04/15 08:27:00;;;;;;;8.15;6.25;;;9.20;99.90;;;;;;5075728;28;20044;-84
2023/04/15 08:29:26;;;;;;;6.40;5.07;;;9.20;99.90;;;;;;5074944;28;20047;-82
2023/04/15 08:31:52;;;;;;;6.85;5.32;;;9.20;99.90;;;;;;5075467;28;20080;-81
2023/04/15 08:34:18;;;;;;;5.68;4.43;;;9.20;99.90;;;;;;5073478;28;20048;-82
2023/04/15 08:36:44;;;;;;;7.45;5.45;;;9.20;99.90;;;;;;5074400;28;20102;-83
2023/04/15 08:39:10;;;;;;;7.78;5.43;;;9.20;99.90;;;;;;5074519;28;20045;-80
2023/04/15 08:41:46;;;;;;;7.35;5.05;;;9.20;99.90;;;;;;5073109;28;20045;-83
2023/04/15 08:44:13;;;;;;;8.07;5.05;;;9.10;99.90;;;;;;5074390;28;20057;-77
2023/04/15 08:46:41;;;;;;;6.95;5.22;;;9.00;99.90;;;;;;5073533;28;20430;-77
2023/04/15 08:49:11;;;;;;;5.20;4.45;;;9.10;99.90;;;;;;5074437;28;20045;-79
2023/04/15 08:51:39;;;;;;;6.65;5.32;;;9.00;99.90;;;;;;5073996;28;20064;-80
2023/04/15 08:54:06;;;;;;;6.60;4.85;;;9.00;99.90;;;;;;5072827;28;20464;-82
2023/04/15 08:56:32;;;;;;;6.85;4.55;;;9.00;99.90;;;;;;5074070;28;20049;-83
2023/04/15 08:58:59;;;;;;;4.60;4.15;;;8.90;99.90;;;;;;5073533;28;20092;-82
2023/04/15 09:01:25;;;;;;;4.57;3.38;;;8.90;99.90;;;;;;5073654;28;20048;-82
2023/04/15 09:03:53;;;;;;;3.95;2.97;;;9.00;99.90;;;;;;5073523;28;20125;-81
2023/04/15 09:06:20;;;;;;;3.83;3.00;;;9.00;99.90;;;;;;5072869;28;20044;-81
2023/04/15 09:08:46;;;;;;;5.38;3.20;;;9.00;99.90;;;;;;5073682;28;20056;-83
2023/04/15 09:11:12;;;;;;;2.95;2.65;;;9.10;99.90;;;;;;5072498;28;20049;-84
2023/04/15 09:13:38;;;;;;;3.65;2.58;;;9.30;99.90;;;;;;5073260;28;20036;-82
2023/04/15 09:16:05;;;;;;;3.78;2.33;;;9.50;99.90;;;;;;5089495;28;20064;-81
2023/04/15 09:18:35;;;;;;;3.38;2.38;;;9.80;99.90;;;;;;5072214;28;20137;-84
2023/04/15 09:21:12;;;;;;;4.05;2.38;;;9.90;99.90;;;;;;5072791;28;20420;-83
2023/04/15 09:23:40;;;;;;;2.97;2.38;;;9.80;99.90;;;;;;5072642;28;20060;-85
2023/04/15 09:26:07;;;;;;;2.03;1.83;;;9.80;99.90;;;;;;5073090;28;20052;-82
2023/04/15 09:28:34;;;;;;;3.13;2.40;;;9.70;99.90;;;;;;5074113;28;20051;-82
2023/04/15 09:31:01;;;;;;;4.32;2.00;;;9.70;99.90;;;;;;5072040;28;20123;-82
2023/04/15 09:33:28;;;;;;;3.42;1.95;;;9.70;99.90;;;;;;5072941;28;20481;-83
2023/04/15 09:36:04;;;;;;;2.40;2.20;;;9.70;99.90;;;;;;5055959;28;20052;-83
2023/04/15 09:38:31;;;;;;;3.50;2.25;;;9.60;99.90;;;;;;5073237;28;20060;-84
2023/04/15 09:40:57;;;;;;;4.78;2.38;;;9.70;99.90;;;;;;5072974;28;20075;-82
2023/04/15 09:43:40;;;;;;;2.20;2.00;;;9.60;99.90;;;;;;5074013;28;20044;-80
2023/04/15 09:46:06;;;;;;;3.17;2.30;;;9.70;99.90;;;;;;5071631;28;20053;-78
2023/04/15 09:48:31;;;;;;;2.83;2.60;;;9.70;99.90;;;;;;5072792;28;20098;-79
2023/04/15 09:50:59;;;;;;;5.45;2.65;;;9.70;99.90;;;;;;5088131;28;20410;-79
2023/04/15 09:53:25;;;;;;;4.25;3.03;;;9.60;99.90;;;;;;5074832;28;20170;-81
2023/04/15 09:55:58;;;;;;;4.00;2.92;;;9.70;99.90;;;;;;5071572;28;20298;-84
2023/04/15 09:58:28;;;;;;;3.70;2.33;;;9.70;99.90;;;;;;5073027;28;20045;-81
2023/04/15 10:00:55;;;;;;;3.72;2.67;;;9.70;99.90;;;;;;5072468;28;20454;-78
2023/04/15 10:03:28;;;;;;;3.65;2.72;;;9.80;99.90;;;;;;5073647;28;20048;-83
2023/04/15 10:05:56;;;;;;;5.15;2.47;;;9.90;99.90;;;;;;5072511;28;20036;-80
2023/04/15 10:08:28;;;;;;;2.53;2.20;;;9.90;99.90;;;;;;5072296;28;20124;-79
2023/04/15 10:10:55;;;;;;;3.50;2.58;;;10.00;99.90;;;;;;5072437;28;20063;-81
2023/04/15 10:13:25;;;;;;;3.20;2.28;;;9.80;99.90;;;;;;5072591;28;20049;-82
2023/04/15 10:16:01;;;;;;;2.50;2.30;;;9.90;99.90;;;;;;5073469;28;20091;-82
2023/04/15 10:18:29;;;;;;;4.97;2.83;;;9.70;99.90;;;;;;5072413;28;20132;-80
2023/04/15 10:20:55;;;;;;;3.22;2.13;;;9.70;99.90;;;;;;5072789;28;20083;-81
2023/04/15 10:23:23;;;;;;;4.07;2.85;;;9.70;99.90;;;;;;5072218;28;20056;-82
2023/04/15 10:25:52;;;;;;;5.15;2.50;;;9.70;99.90;;;;;;5070850;28;20051;-81
2023/04/15 10:28:19;;;;;;;2.85;2.30;;;9.60;99.90;;;;;;5070984;28;20055;-83
2023/04/15 10:30:46;;;;;;;4.97;2.10;;;9.60;99.90;;;;;;5071066;28;20056;-80
2023/04/15 10:33:13;;;;;;;2.92;2.40;;;9.70;99.90;;;;;;5071649;28;20406;-81
2023/04/15 10:35:39;;;;;;;4.50;2.17;;;9.70;99.90;;;;;;5071755;28;20201;-78
2023/04/15 10:38:36;;;;;;;2.50;2.30;;;9.70;99.90;;;;;;5071959;28;20044;-80
2023/04/15 10:41:33;;;;;;;2.67;1.92;;;9.80;99.90;;;;;;5072016;28;20492;-81
2023/04/15 10:44:00;;;;;;;3.50;2.35;;;9.80;99.90;;;;;;5068557;28;20115;-83
2023/04/15 10:46:38;;;;;;;3.78;2.45;;;9.80;99.90;;;;;;5071989;28;20044;-81
2023/04/15 10:49:09;;;;;;;5.00;2.83;;;9.80;99.90;;;;;;5072107;28;20048;-80
2023/04/15 10:51:41;;;;;;;6.30;3.05;;;9.90;99.90;;;;;;5071030;28;20068;-81
2023/04/15 10:54:14;;;;;;;5.15;3.22;;;9.90;99.90;;;;;;5071938;28;20503;-80
2023/04/15 10:56:44;;;;;;;4.53;2.83;;;9.90;99.90;;;;;;5070527;28;20055;-81
2023/04/15 10:59:10;;;;;;;3.85;2.47;;;9.90;99.90;;;;;;5071773;28;20491;-80
2023/04/15 11:02:06;;;;;;;3.50;2.55;;;9.90;99.90;;;;;;5072279;28;20072;-82
2023/04/15 11:04:50;;;;;;;4.15;3.05;;;9.70;99.90;;;;;;5059027;28;20061;-82
2023/04/15 11:07:47;;;;;;;9.02;2.63;;;9.60;99.90;;;;;;5071792;28;20045;-82
2023/04/15 11:10:13;;;;;;;4.78;2.90;;;9.80;99.90;;;;;;5072065;28;20045;-81
2023/04/15 11:12:40;;;;;;;4.20;2.47;;;9.80;99.90;;;;;;5071912;28;20040;-83
2023/04/15 11:15:29;;;;;;;6.22;2.95;;;9.70;99.90;;;;;;5071652;28;20048;-80
2023/04/15 11:17:56;;;;;;;4.35;2.83;;;9.70;99.90;;;;;;5071629;28;20109;-82
2023/04/15 11:20:22;;;;;;;6.93;3.53;;;9.70;99.90;;;;;;5072117;28;20048;-80
2023/04/15 11:22:50;;;;;;;5.78;3.08;;;9.70;99.90;;;;;;5071463;28;20422;-80
2023/04/15 11:25:27;;;;;;;5.40;2.88;;;9.60;99.90;;;;;;5072279;28;20164;-78
2023/04/15 11:27:54;;;;;;;4.45;2.35;;;9.70;99.90;;;;;;5074341;28;20044;-79
2023/04/15 11:30:22;;;;;;;4.85;2.55;;;9.80;99.90;;;;;;5074433;28;20059;-81
2023/04/15 11:32:57;;;;;;;3.47;2.50;;;9.70;99.90;;;;;;5075023;28;20045;-83
2023/04/15 11:35:22;;;;;;;4.80;3.60;;;9.90;99.90;;;;;;5075858;28;20071;-82
2023/04/15 11:37:49;;;;;;;4.22;2.55;;;9.80;99.90;;;;;;5074627;28;20049;-80
2023/04/15 11:40:16;;;;;;;4.97;2.75;;;10.10;99.90;;;;;;5075062;28;20048;-80
2023/04/15 11:42:46;;;;;;;5.30;2.70;;;10.00;99.90;;;;;;5075100;28;20056;-80
2023/04/15 11:45:13;;;;;;;8.43;4.85;;;9.90;99.90;;;;;;5073657;28;20056;-80
2023/04/15 11:47:41;;;;;;;8.95;3.17;;;9.80;99.90;;;;;;5075416;28;20048;-82
2023/04/15 11:50:33;;;;;;;5.88;2.92;;;9.90;99.90;;;;;;5090981;28;20051;-81
2023/04/15 11:53:01;;;;;;;5.63;3.28;;;10.00;99.90;;;;;;5072422;28;20052;-80
2023/04/15 11:55:28;;;;;;;4.28;2.50;;;10.00;99.90;;;;;;5073946;28;20053;-79
2023/04/15 11:58:09;;;;;;;4.57;2.42;;;10.00;99.90;;;;;;5074712;28;20048;-78
2023/04/15 12:00:35;;;;;;;5.65;2.90;;;10.10;99.90;;;;;;5075031;28;20050;-83
2023/04/15 12:03:18;;;;;;;3.33;2.55;;;10.20;99.90;;;;;;5074588;28;20049;-80
2023/04/15 12:06:17;;;;;;;4.03;2.72;;;10.20;99.90;;;;;;5074429;28;20123;-81
2023/04/15 12:08:59;;;;;;;6.05;3.08;;;10.20;99.90;;;;;;5074362;28;20504;-81
2023/04/15 12:11:35;;;;;;;7.32;2.63;;;10.20;99.90;;;;;;5074592;28;20048;-81
2023/04/15 12:14:05;;;;;;;2.75;2.00;;;10.10;99.90;;;;;;5073504;28;20044;-80
2023/04/15 12:16:34;;;;;;;7.28;2.92;;;9.90;99.90;;;;;;5074482;28;20051;-80
2023/04/15 12:19:04;;;;;;;3.95;2.38;;;10.00;99.90;;;;;;5074670;28;20079;-81
2023/04/15 12:21:35;;;;;;;5.43;2.40;;;10.00;99.90;;;;;;5073643;28;20056;-79
2023/04/15 12:24:03;;;;;;;3.33;1.95;;;10.10;99.90;;;;;;5073929;28;20559;-81
2023/04/15 12:26:33;;;;;;;5.15;2.95;;;10.00;99.90;;;;;;5089744;28;20128;-80
2023/04/15 12:29:06;;;;;;;8.77;3.00;;;10.10;99.90;;;;;;5072935;28;20086;-81
2023/04/15 12:31:34;;;;;;;;;;;10.10;99.90;;;;;;5073505;28;20048;-80
2023/04/15 12:34:00;;;;;;;7.40;2.50;;;10.40;99.90;;;;;;5074382;28;19973;-81
2023/04/15 12:36:27;;;;;;;5.45;2.70;;;9.90;99.90;;;;;;5074069;28;20421;-77
2023/04/15 12:38:53;;;;;;;6.20;2.88;;;9.80;99.90;;;;;;5073002;28;20053;-80
2023/04/15 12:41:23;;;;;;;5.97;2.92;;;9.90;99.90;;;;;;5073607;28;20079;-80
2023/04/15 12:43:49;;;;;;;7.07;2.70;;;9.80;99.90;;;;;;5074008;28;20051;-79
2023/04/15 12:46:15;;;;;;;8.05;3.55;;;9.80;99.90;;;;;;5073386;28;20044;-81
2023/04/15 12:48:40;;;;;;;5.55;3.00;;;9.70;99.90;;;;;;5073940;28;20152;-81
2023/04/15 12:51:06;;;;;;;5.65;2.75;;;9.60;99.90;;;;;;5073428;28;20535;-80